« Back
NWS Peachtree City, Ga » Text Product » ATL Terminal Aerodrome Forecast


Printer-friendly Version
Current Version              Previous Versions:   1  2  3  4  5  6  7  8  9  

Terminal Aerodrome Forecast

893
FTUS42 KFFC 270732 AAA
TAFATL
TAF AMD
KATL 270732Z 2708/2812 30010KT 6SM -SHRA BR BKN015
      TEMPO 2708/2710 32010G20KT 6SM -RA BKN008
     FM271100 32012G20KT P6SM BKN020
     FM271500 33015G25KT P6SM SCT025 BKN050
     FM271800 32012G22KT P6SM SCT035
     FM280000 32012G18KT P6SM BKN050
     FM280600 33010KT P6SM SKC=



USA.gov is the U.S. government's official web portal to all federal, state and local government web resources and services.